CheckWX is a tool to help pilots better visualize weather data.  It is not intended as a substitute for an official pre-flight weather briefing.

20:14:32 UTC

KADM METAR
Ardmore Municipal Airport
Ardmore, Oklahoma, USA
Current

20 mins ago

KADM 261955Z 16011G15KT 10SM BKN040 BKN047 29/20 A3003
Observed
May-26 @ 19:55 UTC
Wind
  • 160° at 11 KTS
  • Gusting to 15 KTS
Visibility
10 SM
Flight Rules
VFR
Cloud Levels
  • Broken at 4,000' AGL
  • Broken at 4,700' AGL
Temperature
29°C / 84°F
Dewpoint
20°C / 68°F
Heat Index
31°C / 87°F
Humidity
58%
Altimeter
30.03" Hg
Pressure
1016.92 hPa
Previous

1 hour ago

KADM 261855Z 15012KT 10SM BKN040 29/21 A3005
Observed
May-26 @ 18:55 UTC
Wind
  • 150° at 12 KTS
Visibility
10 SM
Flight Rules
VFR
Cloud Levels
  • Broken at 4,000' AGL
Temperature
29°C / 84°F
Dewpoint
21°C / 70°F
Heat Index
31°C / 88°F
Humidity
62%
Altimeter
30.05" Hg
Pressure
1017.62 hPa
Previous

2 hours ago

KADM 261755Z 16010KT 10SM SCT037 SCT044 29/20 A3008
Observed
May-26 @ 17:55 UTC
Wind
  • 160° at 10 KTS
Visibility
10 SM
Flight Rules
VFR
Cloud Levels
  • Scattered at 3,700' AGL
  • Scattered at 4,400' AGL
Temperature
29°C / 84°F
Dewpoint
20°C / 68°F
Heat Index
31°C / 87°F
Humidity
58%
Altimeter
30.08" Hg
Pressure
1018.62 hPa